Time;durP1;ratioP1;P1;durP2;ratioP2;P2;SDS_P1;SDS_P2;PMS_P1;PMS_P2;Temp;Humidity;BMP_temperature;BMP_pressure;BME280_temperature;BME280_humidity;BME280_pressure;Samples;Min_cycle;Max_cycle;Signal;HPM_P1;HPM_P2
2022/08/28 00:01:20;;;;;;;26.52;23.65;;;17.80;99.90;;;;;;5094439;28;20205;-76
2022/08/28 00:03:47;;;;;;;25.67;22.95;;;17.80;99.90;;;;;;5094335;28;20228;-76
2022/08/28 00:06:15;;;;;;;28.73;23.10;;;17.80;99.90;;;;;;5094682;28;20246;-76
2022/08/28 00:08:42;;;;;;;26.90;24.00;;;17.80;99.90;;;;;;5094544;28;20196;-76
2022/08/28 00:11:08;;;;;;;27.52;23.67;;;17.80;99.90;;;;;;5095653;28;20224;-76
2022/08/28 00:13:36;;;;;;;26.83;23.35;;;17.80;99.90;;;;;;5096909;28;20647;-76
2022/08/28 00:16:03;;;;;;;25.35;22.65;;;17.80;99.90;;;;;;5094185;28;20559;-75
2022/08/28 00:18:31;;;;;;;26.77;23.85;;;17.70;99.90;;;;;;5094304;28;20637;-76
2022/08/28 00:20:57;;;;;;;30.83;23.38;;;17.70;99.90;;;;;;5094235;28;20201;-75
2022/08/28 00:23:26;;;;;;;26.92;23.33;;;17.70;99.90;;;;;;5093956;28;20545;-77
2022/08/28 00:25:53;;;;;;;30.15;24.08;;;17.70;99.90;;;;;;5094125;28;20200;-77
2022/08/28 00:28:18;;;;;;;27.80;22.35;;;17.70;99.90;;;;;;5093877;28;20605;-77
2022/08/28 00:30:47;;;;;;;29.70;24.65;;;17.60;99.90;;;;;;5093908;28;20242;-77
2022/08/28 00:33:18;;;;;;;26.70;23.92;;;17.60;99.90;;;;;;5093435;28;20200;-77
2022/08/28 00:35:46;;;;;;;28.90;24.13;;;17.60;99.90;;;;;;5094009;28;20196;-77
2022/08/28 00:38:13;;;;;;;27.15;23.45;;;17.60;99.90;;;;;;5093953;28;20204;-78
2022/08/28 00:40:43;;;;;;;25.58;22.92;;;17.60;99.90;;;;;;5093685;28;20597;-77
2022/08/28 00:43:11;;;;;;;28.23;22.60;;;17.50;99.90;;;;;;5093705;28;20273;-76
2022/08/28 00:45:38;;;;;;;28.80;23.80;;;17.60;99.90;;;;;;5093852;28;20223;-75
2022/08/28 00:48:05;;;;;;;25.42;22.73;;;17.60;99.90;;;;;;5093624;28;20604;-75
2022/08/28 00:52:04;;;;;;;30.65;23.92;;;17.60;99.90;;;;;;5093638;28;20203;-75
2022/08/28 00:53:21;;;;;;;25.90;22.85;;;17.50;99.90;;;;;;5093555;28;20681;-76
2022/08/28 00:55:49;;;;;;;25.60;22.85;;;17.50;99.90;;;;;;5093516;28;20691;-75
2022/08/28 00:58:17;;;;;;;25.75;22.65;;;17.50;99.90;;;;;;5093698;28;20203;-75
2022/08/28 01:00:44;;;;;;;24.83;22.33;;;17.50;99.90;;;;;;5093589;28;20237;-77
2022/08/28 01:03:11;;;;;;;31.63;24.23;;;17.50;99.90;;;;;;5093425;28;20196;-77
2022/08/28 01:05:42;;;;;;;25.05;22.17;;;17.50;99.90;;;;;;5093122;28;20640;-76
2022/08/28 01:08:08;;;;;;;25.73;22.73;;;17.50;99.90;;;;;;5093254;28;20200;-76
2022/08/28 01:10:35;;;;;;;30.45;23.48;;;17.50;99.90;;;;;;5093521;28;20225;-76
2022/08/28 01:13:04;;;;;;;29.52;22.77;;;17.50;99.90;;;;;;5093514;28;20204;-76
2022/08/28 01:15:34;;;;;;;26.48;23.60;;;17.50;99.90;;;;;;5093238;28;20204;-76
2022/08/28 01:18:07;;;;;;;27.08;23.17;;;17.50;99.90;;;;;;5093062;28;20245;-76
2022/08/28 01:20:36;;;;;;;25.75;22.38;;;17.40;99.90;;;;;;5093097;28;20200;-76
2022/08/28 01:23:09;;;;;;;30.95;23.52;;;17.40;99.90;;;;;;5093181;28;20201;-76
2022/08/28 01:25:39;;;;;;;26.52;23.70;;;17.40;99.90;;;;;;5092886;28;20691;-76
2022/08/28 01:28:09;;;;;;;28.35;23.17;;;17.40;99.90;;;;;;5093037;28;20196;-76
2022/08/28 01:30:36;;;;;;;26.27;23.17;;;17.40;99.90;;;;;;5093013;28;20199;-76
2022/08/28 01:33:03;;;;;;;24.90;22.17;;;17.40;99.90;;;;;;5092868;28;20249;-76
2022/08/28 01:35:33;;;;;;;30.40;22.42;;;17.40;99.90;;;;;;5093037;28;20197;-76
2022/08/28 01:38:02;;;;;;;26.65;22.27;;;17.40;99.90;;;;;;5093004;28;20200;-76
2022/08/28 01:40:32;;;;;;;25.90;22.75;;;17.40;99.90;;;;;;5093364;28;20200;-76
2022/08/28 01:43:10;;;;;;;27.13;22.50;;;17.40;99.90;;;;;;5092874;28;20192;-75
2022/08/28 01:45:37;;;;;;;25.30;22.55;;;17.40;99.90;;;;;;5092650;28;20219;-76
2022/08/28 01:48:05;;;;;;;28.42;21.98;;;17.40;99.90;;;;;;5092873;28;20202;-75
2022/08/28 01:50:33;;;;;;;24.65;21.88;;;17.40;99.90;;;;;;5092684;28;20200;-76
2022/08/28 01:53:00;;;;;;;23.55;21.02;;;17.30;99.90;;;;;;5092786;28;20250;-75
2022/08/28 01:55:27;;;;;;;24.73;21.88;;;17.30;99.90;;;;;;5092728;28;20236;-76
2022/08/28 01:57:55;;;;;;;27.25;22.02;;;17.20;99.90;;;;;;5092645;28;20197;-75
2022/08/28 02:00:26;;;;;;;26.15;21.67;;;17.20;99.90;;;;;;5092560;28;20283;-75
2022/08/28 02:02:54;;;;;;;23.55;21.05;;;17.20;99.90;;;;;;5092769;28;20200;-78
2022/08/28 02:05:22;;;;;;;24.40;21.80;;;17.20;99.90;;;;;;5092511;28;20588;-76
2022/08/28 02:07:49;;;;;;;28.15;22.27;;;17.20;99.90;;;;;;5092741;28;20620;-76
2022/08/28 02:10:15;;;;;;;25.58;21.60;;;17.30;99.90;;;;;;5092595;28;20241;-76
2022/08/28 02:12:42;;;;;;;22.45;20.02;;;17.20;99.90;;;;;;5092652;28;20226;-76
2022/08/28 02:15:10;;;;;;;23.90;20.35;;;17.20;99.90;;;;;;5092517;28;20193;-76
2022/08/28 02:17:38;;;;;;;22.88;20.60;;;17.20;99.90;;;;;;5092715;28;20273;-76
2022/08/28 02:20:06;;;;;;;26.55;21.25;;;17.20;99.90;;;;;;5092649;28;20284;-77
2022/08/28 02:22:33;;;;;;;24.50;21.17;;;17.10;99.90;;;;;;5092606;28;20205;-78
2022/08/28 02:25:00;;;;;;;24.55;20.60;;;17.10;99.90;;;;;;5092374;28;20633;-76
2022/08/28 02:27:28;;;;;;;26.35;22.40;;;17.20;99.90;;;;;;5092270;28;20197;-75
2022/08/28 02:29:54;;;;;;;23.27;20.73;;;17.20;99.90;;;;;;5092514;28;20208;-76
2022/08/28 02:32:22;;;;;;;23.67;20.90;;;17.20;99.90;;;;;;5092421;28;20204;-76
2022/08/28 02:34:50;;;;;;;26.73;21.88;;;17.10;99.90;;;;;;5092639;28;20204;-76
2022/08/28 02:37:16;;;;;;;27.58;20.60;;;17.10;99.90;;;;;;5092357;28;20249;-76
2022/08/28 02:39:43;;;;;;;24.17;21.35;;;17.10;99.90;;;;;;5092171;28;20715;-76
2022/08/28 02:42:10;;;;;;;23.67;21.17;;;17.10;99.90;;;;;;5092162;28;20287;-76
2022/08/28 02:44:37;;;;;;;24.42;21.65;;;17.10;99.90;;;;;;5092295;28;20311;-76
2022/08/28 02:47:03;;;;;;;25.05;20.52;;;17.00;99.90;;;;;;5092304;28;20200;-76
2022/08/28 02:49:31;;;;;;;27.98;21.73;;;17.10;99.90;;;;;;5092269;28;20201;-76
2022/08/28 02:51:59;;;;;;;24.05;21.05;;;17.10;99.90;;;;;;5092162;28;20206;-76
2022/08/28 02:54:26;;;;;;;23.88;21.30;;;17.10;99.90;;;;;;5091800;28;20261;-76
2022/08/28 02:56:53;;;;;;;22.23;19.75;;;17.10;99.90;;;;;;5092958;28;20664;-76
2022/08/28 02:59:20;;;;;;;23.10;19.88;;;17.10;99.90;;;;;;5095880;28;20192;-76
2022/08/28 03:01:47;;;;;;;25.65;20.75;;;17.10;99.90;;;;;;5095837;28;20288;-76
2022/08/28 03:04:13;;;;;;;22.30;19.90;;;17.10;99.90;;;;;;5095601;28;20196;-76
2022/08/28 03:06:40;;;;;;;22.33;20.13;;;17.10;99.90;;;;;;5095756;28;20582;-76
2022/08/28 03:09:09;;;;;;;23.98;20.75;;;17.10;99.90;;;;;;5095376;28;20279;-76
2022/08/28 03:11:36;;;;;;;22.92;20.42;;;17.10;99.90;;;;;;5095699;28;20207;-76
2022/08/28 03:14:03;;;;;;;23.73;20.75;;;17.10;99.90;;;;;;5095520;28;20203;-76
2022/08/28 03:16:31;;;;;;;23.35;20.85;;;17.10;99.90;;;;;;5095351;28;20203;-76
2022/08/28 03:18:58;;;;;;;21.75;19.48;;;17.10;99.90;;;;;;5095378;28;20200;-76
2022/08/28 03:21:25;;;;;;;22.15;19.73;;;17.10;99.90;;;;;;5095447;28;20203;-75
2022/08/28 03:23:51;;;;;;;22.05;19.73;;;17.00;99.90;;;;;;5095228;28;20250;-76
2022/08/28 03:26:22;;;;;;;23.35;20.35;;;17.10;99.90;;;;;;5095337;28;20293;-76
2022/08/28 03:28:51;;;;;;;22.73;20.30;;;17.10;99.90;;;;;;5095157;28;20656;-76
2022/08/28 03:31:22;;;;;;;23.20;20.15;;;17.10;99.90;;;;;;5095242;28;20200;-76
2022/08/28 03:33:50;;;;;;;24.75;20.35;;;17.10;99.90;;;;;;5095295;28;20291;-76
2022/08/28 03:36:20;;;;;;;23.00;20.38;;;17.10;99.90;;;;;;5094979;28;20329;-76
2022/08/28 03:38:46;;;;;;;24.08;21.02;;;17.00;99.90;;;;;;5095093;28;20203;-76
2022/08/28 03:41:17;;;;;;;24.83;21.65;;;17.00;99.90;;;;;;5095042;28;20716;-76
2022/08/28 03:43:45;;;;;;;24.15;21.60;;;17.10;99.90;;;;;;5094962;28;20197;-76
2022/08/28 03:46:14;;;;;;;25.58;21.55;;;17.10;99.90;;;;;;5094664;28;20281;-77
2022/08/28 03:48:40;;;;;;;25.00;21.73;;;17.00;99.90;;;;;;5094660;28;20248;-76
2022/08/28 03:51:08;;;;;;;24.13;20.73;;;17.00;99.90;;;;;;5094940;28;20200;-76
2022/08/28 03:53:35;;;;;;;24.38;21.92;;;17.00;99.90;;;;;;5094793;28;20196;-76
2022/08/28 03:56:05;;;;;;;24.23;21.02;;;17.00;99.90;;;;;;5094704;28;20266;-76
2022/08/28 03:58:32;;;;;;;23.77;20.90;;;17.00;99.90;;;;;;5094450;28;20586;-76
2022/08/28 04:01:00;;;;;;;24.05;21.38;;;17.00;99.90;;;;;;5094516;28;20250;-76
2022/08/28 04:03:26;;;;;;;22.98;20.52;;;17.00;99.90;;;;;;5094445;28;20196;-76
2022/08/28 04:05:53;;;;;;;22.52;20.13;;;16.90;99.90;;;;;;5094511;28;20236;-76
2022/08/28 04:08:21;;;;;;;25.40;21.48;;;16.90;99.90;;;;;;5093364;28;20242;-76
2022/08/28 04:10:49;;;;;;;24.52;20.63;;;16.90;99.90;;;;;;5094348;28;20219;-76
2022/08/28 04:13:17;;;;;;;26.05;21.25;;;16.90;99.90;;;;;;5094306;28;20196;-76
2022/08/28 04:15:44;;;;;;;26.45;20.63;;;16.90;99.90;;;;;;5094072;28;20253;-76
2022/08/28 04:18:12;;;;;;;27.58;21.45;;;17.00;99.90;;;;;;5094085;28;20655;-76
2022/08/28 04:20:39;;;;;;;28.20;21.85;;;16.90;99.90;;;;;;5094349;28;20606;-76
2022/08/28 04:23:08;;;;;;;25.90;21.92;;;17.00;99.90;;;;;;5094224;28;20567;-76
2022/08/28 04:25:35;;;;;;;27.80;21.08;;;17.00;99.90;;;;;;5094061;28;20223;-76
2022/08/28 04:28:03;;;;;;;25.25;20.73;;;17.00;99.90;;;;;;5094401;28;20204;-76
2022/08/28 04:30:29;;;;;;;26.15;21.33;;;17.00;99.90;;;;;;5093939;28;20201;-76
2022/08/28 04:32:56;;;;;;;24.25;21.10;;;17.00;99.90;;;;;;5094146;28;20595;-76
2022/08/28 04:35:25;;;;;;;24.42;21.15;;;17.00;99.90;;;;;;5093945;28;20211;-76
2022/08/28 04:37:51;;;;;;;29.43;22.37;;;17.00;99.90;;;;;;5093927;28;20196;-76
2022/08/28 04:40:18;;;;;;;24.77;21.70;;;16.90;99.90;;;;;;5093903;28;20261;-76
2022/08/28 04:42:46;;;;;;;28.85;22.52;;;16.90;99.90;;;;;;5093613;28;20200;-77
2022/08/28 04:45:13;;;;;;;24.60;21.23;;;16.90;99.90;;;;;;5093783;28;20220;-76
2022/08/28 04:47:40;;;;;;;24.93;21.77;;;16.90;99.90;;;;;;5093820;28;20197;-76
2022/08/28 04:50:08;;;;;;;25.17;22.52;;;16.90;99.90;;;;;;5093741;28;20232;-76
2022/08/28 04:52:36;;;;;;;26.57;21.03;;;16.90;99.90;;;;;;5093622;28;20203;-76
2022/08/28 04:55:04;;;;;;;24.35;21.88;;;17.00;99.90;;;;;;5093419;28;20231;-76
2022/08/28 04:57:31;;;;;;;24.63;21.70;;;17.00;99.90;;;;;;5093401;28;20241;-76
2022/08/28 04:59:58;;;;;;;23.60;20.42;;;17.00;99.90;;;;;;5093545;28;20204;-76
2022/08/28 05:02:25;;;;;;;24.02;20.98;;;16.90;99.90;;;;;;5093452;28;20203;-76
2022/08/28 05:04:51;;;;;;;24.50;21.17;;;17.00;99.90;;;;;;5093302;28;20264;-76
2022/08/28 05:07:18;;;;;;;25.50;21.98;;;16.90;99.90;;;;;;5093358;28;20196;-76
2022/08/28 05:09:47;;;;;;;23.60;21.10;;;16.90;99.90;;;;;;5093213;28;20200;-76
2022/08/28 05:12:16;;;;;;;23.65;21.17;;;16.90;99.90;;;;;;5093301;28;20254;-76
2022/08/28 05:14:43;;;;;;;22.60;20.27;;;16.90;99.90;;;;;;5093128;28;20200;-76
2022/08/28 05:17:13;;;;;;;23.58;20.88;;;16.90;99.90;;;;;;5093241;28;20203;-76
2022/08/28 05:19:40;;;;;;;23.15;20.25;;;16.90;99.90;;;;;;5092846;28;20196;-76
2022/08/28 05:22:08;;;;;;;22.52;19.80;;;16.90;99.90;;;;;;5093097;28;20204;-76
2022/08/28 05:24:36;;;;;;;21.15;18.90;;;16.90;99.90;;;;;;5093116;28;20196;-76
2022/08/28 05:27:04;;;;;;;23.30;19.55;;;17.00;99.90;;;;;;5093091;28;20301;-76
2022/08/28 05:29:31;;;;;;;22.65;19.42;;;17.00;99.90;;;;;;5092986;28;20196;-77
2022/08/28 05:31:58;;;;;;;20.52;17.98;;;17.00;99.90;;;;;;5093106;28;20193;-76
2022/08/28 05:34:24;;;;;;;21.58;19.27;;;16.90;99.90;;;;;;5092925;28;20204;-76
2022/08/28 05:36:51;;;;;;;22.67;19.58;;;17.00;99.90;;;;;;5092782;28;20230;-76
2022/08/28 05:39:18;;;;;;;22.17;19.88;;;17.00;99.90;;;;;;5092806;28;20273;-76
2022/08/28 05:41:46;;;;;;;21.05;18.83;;;17.00;99.90;;;;;;5092856;28;20200;-76
2022/08/28 05:44:16;;;;;;;21.60;17.90;;;17.10;99.90;;;;;;5092831;28;20200;-76
2022/08/28 05:46:46;;;;;;;19.67;17.63;;;17.10;99.90;;;;;;5092763;28;20273;-76
2022/08/28 05:49:13;;;;;;;22.20;19.80;;;17.10;99.90;;;;;;5092758;28;20560;-76
2022/08/28 05:51:41;;;;;;;19.90;17.85;;;17.10;99.90;;;;;;5093135;28;20199;-76
2022/08/28 05:54:08;;;;;;;21.13;18.92;;;17.20;99.90;;;;;;5092437;28;20696;-75
2022/08/28 05:56:37;;;;;;;21.98;18.25;;;17.20;99.90;;;;;;5092745;28;20196;-75
2022/08/28 05:59:05;;;;;;;19.50;17.38;;;17.30;99.90;;;;;;5092640;28;20279;-76
2022/08/28 06:01:35;;;;;;;20.60;16.77;;;17.30;99.90;;;;;;5092594;28;20208;-76
2022/08/28 06:04:06;;;;;;;22.73;17.85;;;17.40;99.90;;;;;;5092528;28;20204;-77
2022/08/28 06:06:35;;;;;;;19.67;17.23;;;17.40;99.90;;;;;;5092696;28;20552;-77
2022/08/28 06:09:08;;;;;;;19.15;16.55;;;17.50;99.90;;;;;;5092433;28;20631;-77
2022/08/28 06:11:37;;;;;;;18.38;16.35;;;17.50;99.90;;;;;;5092537;28;20732;-77
2022/08/28 06:14:08;;;;;;;19.45;17.33;;;17.60;99.90;;;;;;5092466;28;20609;-77
2022/08/28 06:16:38;;;;;;;19.48;17.38;;;17.50;99.90;;;;;;5092411;28;20232;-76
2022/08/28 06:19:06;;;;;;;18.60;16.67;;;17.60;99.90;;;;;;5092780;28;20200;-77
2022/08/28 06:21:33;;;;;;;17.88;16.05;;;17.70;99.90;;;;;;5092811;28;20197;-77
2022/08/28 06:24:00;;;;;;;17.85;15.95;;;17.80;99.90;;;;;;5092774;28;20675;-77
2022/08/28 06:26:27;;;;;;;16.35;14.48;;;17.80;99.90;;;;;;5092804;28;20216;-77
2022/08/28 06:28:53;;;;;;;17.13;15.48;;;18.00;99.90;;;;;;5092724;28;20192;-76
2022/08/28 06:31:20;;;;;;;18.52;15.38;;;18.00;99.90;;;;;;5092471;28;20242;-76
2022/08/28 06:33:48;;;;;;;17.90;14.80;;;18.00;99.90;;;;;;5096401;28;20253;-76
2022/08/28 06:36:15;;;;;;;17.80;14.60;;;18.10;99.90;;;;;;5096104;28;20644;-77
2022/08/28 06:38:45;;;;;;;15.73;14.07;;;18.20;99.90;;;;;;5096262;28;20196;-76
2022/08/28 06:41:12;;;;;;;16.52;14.93;;;18.30;99.90;;;;;;5096142;28;20196;-76
2022/08/28 06:43:39;;;;;;;15.80;13.85;;;18.50;99.90;;;;;;5096007;28;20241;-77
2022/08/28 06:46:06;;;;;;;16.92;14.10;;;18.70;99.90;;;;;;5096116;28;20224;-76
2022/08/28 06:48:32;;;;;;;15.73;13.15;;;18.70;99.90;;;;;;5096156;28;20213;-76
2022/08/28 06:51:00;;;;;;;21.02;13.57;;;18.80;99.90;;;;;;5096061;28;20245;-76
2022/08/28 06:53:30;;;;;;;14.80;13.30;;;18.90;99.90;;;;;;5096401;28;20204;-76
2022/08/28 06:56:01;;;;;;;16.05;14.15;;;18.90;99.90;;;;;;5096007;28;20659;-76
2022/08/28 06:58:29;;;;;;;14.65;13.25;;;18.90;99.90;;;;;;5095636;28;20672;-76
2022/08/28 07:01:03;;;;;;;14.25;12.85;;;19.00;99.90;;;;;;5095523;28;20286;-77
2022/08/28 07:03:30;;;;;;;17.83;14.38;;;18.90;99.90;;;;;;5095515;28;20643;-75
2022/08/28 07:05:57;;;;;;;15.35;13.52;;;19.10;99.90;;;;;;5095508;28;20308;-75
2022/08/28 07:08:26;;;;;;;16.70;13.85;;;19.20;99.90;;;;;;5095584;28;20200;-77
2022/08/28 07:10:52;;;;;;;16.88;13.63;;;19.50;99.90;;;;;;5095237;28;20249;-77
2022/08/28 07:13:19;;;;;;;15.63;13.13;;;19.50;99.90;;;;;;5095478;28;20203;-77
2022/08/28 07:15:46;;;;;;;13.50;12.10;;;19.50;99.90;;;;;;5095359;28;20204;-77
2022/08/28 07:18:13;;;;;;;15.90;13.00;;;19.90;99.90;;;;;;5095323;28;20204;-77
2022/08/28 07:20:40;;;;;;;15.77;11.40;;;20.20;99.90;;;;;;5095072;28;20647;-77
2022/08/28 07:23:07;;;;;;;13.63;12.20;;;20.50;99.90;;;;;;5095116;28;20246;-77
2022/08/28 07:25:39;;;;;;;17.35;11.45;;;20.40;99.90;;;;;;5095446;28;20204;-77
2022/08/28 07:28:06;;;;;;;13.73;12.00;;;19.90;99.90;;;;;;5095506;28;20200;-77
2022/08/28 07:30:32;;;;;;;12.73;11.18;;;20.10;99.90;;;;;;5095088;28;20208;-77
2022/08/28 07:32:59;;;;;;;15.23;11.38;;;20.50;99.90;;;;;;5095075;28;20648;-77
2022/08/28 07:35:26;;;;;;;11.40;9.90;;;20.60;99.90;;;;;;5095055;28;20197;-77
2022/08/28 07:37:52;;;;;;;10.65;9.55;;;21.00;99.90;;;;;;5094902;28;20200;-77
2022/08/28 07:40:21;;;;;;;11.05;9.80;;;21.30;99.90;;;;;;5095211;28;20253;-77
2022/08/28 07:45:34;;;;;;;12.73;9.15;;;21.80;99.90;;;;;;5094774;28;20207;-77
2022/08/28 07:48:03;;;;;;;10.13;9.07;;;21.80;99.90;;;;;;5094697;28;20341;-78
2022/08/28 07:50:30;;;;;;;14.68;10.10;;;22.00;99.90;;;;;;5094624;28;20555;-77
2022/08/28 07:52:57;;;;;;;14.75;9.40;;;22.00;99.90;;;;;;5094482;28;20552;-77
2022/08/28 07:55:25;;;;;;;11.27;10.05;;;22.20;99.90;;;;;;5094430;28;20228;-77
2022/08/28 07:57:54;;;;;;;10.50;9.40;;;22.20;99.90;;;;;;5094652;28;20204;-77
2022/08/28 08:00:21;;;;;;;10.77;9.68;;;22.20;99.90;;;;;;5094595;28;20192;-77
2022/08/28 08:02:48;;;;;;;13.85;9.65;;;22.20;99.90;;;;;;5094368;28;20196;-76
2022/08/28 08:05:14;;;;;;;12.80;10.27;;;22.30;99.90;;;;;;5094313;28;20597;-77
2022/08/28 08:07:41;;;;;;;14.13;10.32;;;22.40;99.90;;;;;;5094189;28;20224;-77
2022/08/28 08:10:12;;;;;;;11.82;9.57;;;22.50;99.90;;;;;;5094419;28;20222;-77
2022/08/28 08:12:41;;;;;;;12.38;10.32;;;22.30;99.90;;;;;;5094363;28;20230;-77
2022/08/28 08:15:09;;;;;;;11.27;9.85;;;22.30;99.90;;;;;;5094118;28;20192;-77
2022/08/28 08:17:36;;;;;;;11.15;8.45;;;22.60;99.90;;;;;;5093997;28;20201;-77
2022/08/28 08:20:04;;;;;;;11.60;8.27;;;22.60;99.90;;;;;;5094168;28;20200;-77
2022/08/28 08:22:30;;;;;;;11.18;9.48;;;22.70;99.90;;;;;;5093922;28;20565;-77
2022/08/28 08:24:57;;;;;;;12.32;8.65;;;23.10;99.90;;;;;;5094122;28;20196;-76
2022/08/28 08:27:24;;;;;;;10.27;8.50;;;23.50;99.90;;;;;;5093912;28;20560;-77
2022/08/28 08:29:50;;;;;;;8.30;7.45;;;24.00;99.90;;;;;;5093869;28;20200;-76
2022/08/28 08:32:18;;;;;;;9.85;8.13;;;24.30;99.90;;;;;;5094127;28;20246;-77
2022/08/28 08:34:45;;;;;;;11.20;8.07;;;24.40;99.90;;;;;;5093837;28;20200;-77
2022/08/28 08:37:13;;;;;;;9.93;7.68;;;24.60;99.90;;;;;;5093975;28;20269;-77
2022/08/28 08:39:41;;;;;;;9.43;7.72;;;24.70;99.90;;;;;;5093707;28;20200;-77
2022/08/28 08:42:19;;;;;;;9.68;7.57;;;24.70;99.90;;;;;;5093774;28;20287;-77
2022/08/28 08:44:48;;;;;;;9.90;7.60;;;24.90;99.90;;;;;;5093875;28;20199;-77
2022/08/28 08:47:21;;;;;;;9.02;8.20;;;24.90;99.90;;;;;;5093433;28;20250;-77
2022/08/28 08:49:52;;;;;;;7.68;6.97;;;24.50;99.90;;;;;;5093674;28;20199;-77
2022/08/28 08:52:31;;;;;;;9.23;7.57;;;24.20;99.90;;;;;;5093611;28;20307;-77
2022/08/28 08:55:23;;;;;;;11.82;7.93;;;24.50;99.90;;;;;;5092631;28;20228;-77
2022/08/28 08:57:58;;;;;;;9.75;7.38;;;24.50;99.90;;;;;;5078653;28;20312;-76
2022/08/28 09:00:25;;;;;;;9.38;7.25;;;24.60;99.90;;;;;;5093361;28;20245;-76
2022/08/28 09:03:01;;;;;;;14.75;8.23;;;24.90;99.90;;;;;;5093200;28;20196;-77
2022/08/28 09:05:40;;;;;;;8.90;7.55;;;25.00;99.90;;;;;;5093219;28;20673;-77
2022/08/28 09:08:12;;;;;;;9.02;6.95;;;25.20;99.90;;;;;;5093282;28;20493;-77
2022/08/28 09:10:47;;;;;;;14.85;8.00;;;25.20;99.90;;;;;;5093294;28;20201;-77
2022/08/28 09:13:21;;;;;;;8.38;7.45;;;25.20;99.90;;;;;;5093143;28;20195;-78
2022/08/28 09:15:48;;;;;;;12.35;8.25;;;24.90;99.90;;;;;;5092977;28;20199;-77
2022/08/28 09:18:20;;;;;;;7.55;6.78;;;24.50;99.90;;;;;;5093145;28;20200;-76
2022/08/28 09:20:50;;;;;;;7.65;6.93;;;25.00;99.90;;;;;;5092950;28;20648;-76
2022/08/28 09:23:17;;;;;;;7.80;6.75;;;25.30;99.90;;;;;;5093185;28;20196;-76
2022/08/28 09:25:51;;;;;;;8.52;7.30;;;25.70;99.90;;;;;;5092803;28;20705;-76
2022/08/28 09:28:21;;;;;;;8.45;7.10;;;25.60;99.90;;;;;;5092872;28;20273;-76
2022/08/28 09:30:56;;;;;;;8.45;6.90;;;25.60;99.90;;;;;;5092631;28;20587;-76
2022/08/28 09:33:38;;;;;;;8.85;6.72;;;26.10;99.90;;;;;;5092786;28;20328;-76
2022/08/28 09:36:23;;;;;;;10.00;7.05;;;26.20;99.90;;;;;;5092753;28;20200;-77
2022/08/28 09:39:08;;;;;;;10.73;7.35;;;26.60;99.90;;;;;;5092730;28;20196;-76
2022/08/28 09:44:22;;;;;;;7.95;6.63;;;25.80;99.90;;;;;;5092646;28;20203;-77
2022/08/28 09:46:51;;;;;;;9.18;6.68;;;26.40;99.90;;;;;;5092523;28;20224;-76
2022/08/28 09:49:26;;;;;;;7.90;7.10;;;26.80;99.90;;;;;;5092313;28;20192;-76
2022/08/28 09:51:53;;;;;;;8.65;6.75;;;27.20;99.90;;;;;;5092754;28;20230;-76
2022/08/28 09:54:26;;;;;;;7.05;5.95;;;27.60;99.90;;;;;;5092570;28;20224;-77
2022/08/28 09:56:53;;;;;;;8.43;6.50;;;27.90;99.90;;;;;;5092468;28;20199;-77
2022/08/28 09:59:21;;;;;;;6.78;6.07;;;28.40;99.90;;;;;;5092448;28;20254;-77
2022/08/28 10:01:57;;;;;;;7.47;6.40;;;28.30;99.90;;;;;;5092507;28;20250;-77
2022/08/28 10:04:55;;;;;;;11.00;6.95;;;27.80;99.90;;;;;;5092517;28;20713;-77
2022/08/28 10:07:30;;;;;;;6.95;6.25;;;27.30;99.90;;;;;;5091989;28;20224;-76
2022/08/28 10:10:13;;;;;;;8.85;6.45;;;26.60;99.90;;;;;;5096654;28;20199;-76
2022/08/28 10:12:48;;;;;;;12.05;6.60;;;27.40;99.90;;;;;;5096835;28;20216;-76
2022/08/28 10:15:21;;;;;;;10.18;6.70;;;26.90;99.90;;;;;;5096761;28;20206;-76
2022/08/28 10:18:04;;;;;;;8.55;6.45;;;26.70;99.90;;;;;;5096605;28;20243;-78
2022/08/28 10:20:43;;;;;;;7.85;6.50;;;26.90;99.90;;;;;;5096590;28;20196;-78
2022/08/28 10:23:17;;;;;;;6.88;5.80;;;26.90;99.90;;;;;;5096697;28;20200;-77
2022/08/28 10:25:49;;;;;;;9.52;5.57;;;27.40;99.90;;;;;;5096551;28;20257;-78
2022/08/28 10:28:35;;;;;;;7.32;5.90;;;27.40;99.90;;;;;;5096406;28;20323;-76
2022/08/28 10:31:11;;;;;;;7.00;5.50;;;27.90;99.90;;;;;;5096601;28;20204;-79
2022/08/28 10:33:58;;;;;;;7.15;5.22;;;28.40;99.90;;;;;;5096437;28;20196;-76
2022/08/28 10:36:30;;;;;;;6.85;5.72;;;28.60;99.90;;;;;;5096324;28;20208;-78
2022/08/28 10:39:08;;;;;;;9.48;5.45;;;28.30;99.90;;;;;;5096185;28;20204;-76
2022/08/28 10:41:42;;;;;;;6.45;5.20;;;28.70;99.90;;;;;;5096387;28;20196;-76
2022/08/28 10:44:10;;;;;;;6.85;5.70;;;28.90;99.90;;;;;;5096459;28;20229;-77
2022/08/28 10:46:44;;;;;;;6.85;5.88;;;29.10;99.90;;;;;;5095918;28;20651;-77
2022/08/28 10:49:19;;;;;;;6.00;5.40;;;29.10;99.90;;;;;;5095937;28;20648;-77
2022/08/28 10:51:52;;;;;;;9.70;6.43;;;28.90;99.90;;;;;;5095820;28;20204;-77
2022/08/28 10:54:26;;;;;;;6.15;5.35;;;27.90;99.90;;;;;;5095941;28;20236;-77
2022/08/28 10:56:58;;;;;;;8.90;6.32;;;27.60;99.90;;;;;;5095994;28;20246;-77
2022/08/28 10:59:28;;;;;;;8.98;6.30;;;27.80;99.90;;;;;;5095880;28;20208;-77
2022/08/28 11:01:55;;;;;;;8.70;5.88;;;27.30;99.90;;;;;;5096043;28;20245;-77
2022/08/28 11:04:23;;;;;;;9.07;5.65;;;27.90;99.90;;;;;;5095645;28;20644;-77
2022/08/28 11:06:54;;;;;;;7.45;5.80;;;28.60;99.90;;;;;;5095701;28;20198;-77
2022/08/28 11:09:31;;;;;;;7.20;5.30;;;29.30;99.90;;;;;;5095636;28;20245;-77
2022/08/28 11:12:00;;;;;;;6.85;5.80;;;29.70;99.90;;;;;;5095620;28;20200;-77
2022/08/28 11:14:31;;;;;;;6.65;5.03;;;30.00;99.90;;;;;;5095348;28;20204;-77
2022/08/28 11:17:01;;;;;;;12.52;5.70;;;30.20;99.90;;;;;;5095397;28;20257;-76
2022/08/28 11:20:00;;;;;;;7.43;4.90;;;32.90;99.90;;;;;;5095366;28;20230;-78
2022/08/28 11:22:33;;;;;;;6.43;4.75;;;33.90;99.90;;;;;;5095376;28;20217;-77
2022/08/28 11:25:06;;;;;;;7.18;4.90;;;35.30;97.70;;;;;;5095388;28;20706;-76
2022/08/28 11:27:35;;;;;;;6.20;4.53;;;36.10;92.70;;;;;;5095216;28;20761;-77
2022/08/28 11:30:31;;;;;;;6.20;5.10;;;37.00;86.70;;;;;;5095265;28;20196;-78
2022/08/28 11:33:28;;;;;;;6.60;4.43;;;37.80;78.50;;;;;;5095209;28;20196;-78
2022/08/28 11:35:55;;;;;;;5.72;4.40;;;38.40;73.40;;;;;;5094897;28;20663;-78
2022/08/28 11:39:11;;;;;;;5.35;4.40;;;37.80;66.90;;;;;;5095214;28;20269;-78
2022/08/28 11:41:59;;;;;;;5.97;4.60;;;36.70;68.70;;;;;;5094944;28;20661;-78
2022/08/28 11:44:45;;;;;;;6.30;4.60;;;36.60;65.20;;;;;;5094791;28;20196;-78
2022/08/28 11:47:42;;;;;;;7.70;5.03;;;34.70;65.90;;;;;;5095013;28;20215;-78
2022/08/28 11:50:18;;;;;;;7.68;4.78;;;33.00;69.80;;;;;;5094658;28;20646;-78
2022/08/28 11:53:09;;;;;;;6.75;4.90;;;31.50;75.40;;;;;;5094897;28;20204;-77
2022/08/28 11:56:11;;;;;;;7.53;5.47;;;30.50;78.20;;;;;;5094601;28;20277;-77
2022/08/28 11:58:49;;;;;;;5.82;5.30;;;29.60;81.40;;;;;;5068656;28;20256;-77
2022/08/28 12:01:27;;;;;;;5.78;5.28;;;28.70;87.20;;;;;;5094647;28;20253;-77
2022/08/28 12:03:56;;;;;;;10.25;5.72;;;28.90;90.00;;;;;;5094801;28;20203;-78
2022/08/28 12:06:45;;;;;;;6.15;5.40;;;29.20;91.20;;;;;;5094507;28;20196;-78
2022/08/28 12:09:32;;;;;;;6.82;5.32;;;30.90;89.20;;;;;;5094368;28;20717;-78
2022/08/28 12:12:03;;;;;;;5.20;4.70;;;32.50;84.20;;;;;;5094285;28;20195;-77
2022/08/28 12:15:02;;;;;;;7.05;5.00;;;33.60;81.80;;;;;;5094407;28;20192;-77
2022/08/28 12:17:48;;;;;;;7.05;4.97;;;34.50;74.30;;;;;;5094490;28;20207;-78
2022/08/28 12:20:40;;;;;;;5.60;4.95;;;32.30;77.60;;;;;;5094391;28;20651;-77
2022/08/28 12:23:37;;;;;;;6.82;4.68;;;31.30;81.70;;;;;;5094205;28;20199;-77
2022/08/28 12:26:06;;;;;;;6.80;5.10;;;30.50;83.90;;;;;;5094274;28;20297;-77
2022/08/28 12:28:43;;;;;;;6.15;5.60;;;29.50;86.80;;;;;;5093877;28;20576;-77
2022/08/28 12:34:14;;;;;;;5.70;5.10;;;28.10;91.60;;;;;;5093472;28;20268;-77
2022/08/28 12:36:42;;;;;;;10.00;5.78;;;27.80;92.30;;;;;;5093971;28;20196;-77
2022/08/28 12:39:15;;;;;;;6.30;5.47;;;27.90;93.50;;;;;;5093898;28;20236;-77
2022/08/28 12:41:43;;;;;;;6.50;4.95;;;29.20;94.10;;;;;;5093728;28;20655;-77
2022/08/28 12:44:14;;;;;;;6.32;5.00;;;32.60;90.90;;;;;;5093732;28;20192;-77
2022/08/28 12:46:44;;;;;;;5.32;4.38;;;34.00;86.40;;;;;;5093862;28;20199;-80
2022/08/28 12:49:30;;;;;;;9.20;5.13;;;35.10;81.50;;;;;;5093838;28;20227;-78
2022/08/28 12:52:09;;;;;;;4.85;4.45;;;33.70;78.30;;;;;;5093777;28;20261;-77
2022/08/28 12:54:35;;;;;;;6.30;4.45;;;32.40;78.50;;;;;;5093426;28;20231;-77
2022/08/28 12:57:04;;;;;;;5.30;4.40;;;31.60;80.10;;;;;;5094178;28;20245;-79
2022/08/28 12:59:36;;;;;;;5.70;4.97;;;30.90;82.90;;;;;;5093739;28;20257;-79